الصفحة الرئيسية
METAR-TAF:

METAR-TAF

مطار :

مطار نواكشوط الدولي

نواكشوط, موريتانيا

دائرة عرض: 18-18-36N, خط طول: 015-58-11W, ارتفاع: 3 متر

مراقبة الطقس الحالي

تاريخ ووقت الإصدار 21 دقيقة قبل الساعة 08:00UTC
ريح 14 عقدة من الشمال
درجة الحرارة 20°درجة مئوية
الرطوبة 56%
ضغط 1013 hPa
الرؤية: 8000 متر

METAR: GQNO 220800Z 36014KT 8000 NSC 20/11 Q1013 NOSIG

زمن: 08:21 (08:21 UTC)

توقعات

تاريخ ووقت الإصدار 3ساعات و 21 دقيقة قبل الساعة 05:00UTC
التوقعات صالحة من22 الساعة 06 UTC إلى 23 الساعة 12 UTC
ريح 14 عقدة من الشمال/الشمال الغربي
الرؤية: 7000 متر
نظرية الاحتمالات 30% :
مؤقت
من 22 الساعة 14 UTC إلى 22 الساعة 18 UTC
الرؤية: 4000 متر
هبوب الغبار

TAF: GQNO 220500Z 2206/2312 34014KT 7000 NSC PROB30 TEMPO 2214/2218 4000 BLDU

أرصاد الطقس والتوقعات من أكثر من 4000 مطار (تقارير الطقس للمطار METAR والتنبؤ بالطقس بالمطارTAF).

المحطات المتاحة هي النقط الصفراء والحمراء على الخريطة.

حرك المؤشر فوق النقطة لمعرفة اسم المحطة.

ثم انقر لمعرفة أرصاد وتوقعات الطقس.

لتغيير الخارطة: اضغط على الأزرار الخضراء مع رمز الصليب الأسود للتكبير. على الزر الأخضر مع شرطة للتصغير، أو على الأسهم الخضراء للخرائط المجاورة.


METAR-TAF: